createdAt,value
2022-12-17T00:02:22.445Z,12.90
2022-12-17T00:05:13.590Z,13.60
2022-12-17T00:08:04.793Z,12.70
2022-12-17T00:10:56.364Z,13.20
2022-12-17T00:13:48.490Z,12.60
2022-12-17T00:16:51.565Z,13.10
2022-12-17T00:19:43.335Z,13.40
2022-12-17T00:22:35.104Z,12.60
2022-12-17T00:25:27.833Z,12.80
2022-12-17T00:28:19.154Z,12.00
2022-12-17T00:31:13.994Z,12.90
2022-12-17T00:34:06.462Z,12.60
2022-12-17T00:36:58.182Z,11.70
2022-12-17T00:39:49.236Z,11.80
2022-12-17T00:42:41.052Z,12.40
2022-12-17T00:45:32.829Z,11.90
2022-12-17T00:48:24.434Z,11.60
2022-12-17T00:51:16.611Z,12.10
2022-12-17T00:54:08.077Z,11.40
2022-12-17T00:57:10.680Z,11.20
2022-12-17T01:00:02.613Z,11.50
2022-12-17T01:02:54.438Z,11.10
2022-12-17T01:05:45.638Z,11.60
2022-12-17T01:08:37.448Z,11.70
2022-12-17T01:11:30.293Z,11.40
2022-12-17T01:14:21.542Z,10.70
2022-12-17T01:17:13.266Z,11.40
2022-12-17T01:20:04.615Z,10.60
2022-12-17T01:22:56.698Z,10.90
2022-12-17T01:25:48.314Z,11.30
2022-12-17T01:28:45.036Z,11.20
2022-12-17T01:31:36.612Z,11.10
2022-12-17T01:34:28.262Z,10.40
2022-12-17T01:37:19.825Z,10.70
2022-12-17T01:40:11.139Z,11.00
2022-12-17T01:43:06.690Z,11.00
2022-12-17T01:46:02.005Z,10.70
2022-12-17T01:48:59.592Z,10.30
2022-12-17T01:51:52.432Z,10.50
2022-12-17T01:54:44.203Z,10.60
2022-12-17T01:57:37.609Z,11.30
2022-12-17T02:00:33.540Z,10.60
2022-12-17T02:03:31.068Z,11.00
2022-12-17T02:06:34.345Z,10.90
2022-12-17T02:09:35.528Z,9.70
2022-12-17T02:12:35.840Z,10.30
2022-12-17T02:15:43.778Z,10.30
2022-12-17T02:18:44.292Z,10.50
2022-12-17T02:21:35.856Z,10.40
2022-12-17T02:24:39.744Z,10.90
2022-12-17T02:27:34.435Z,10.40
2022-12-17T02:30:29.936Z,9.90
2022-12-17T02:33:22.114Z,10.50
2022-12-17T02:36:20.226Z,10.10
2022-12-17T02:39:11.227Z,10.20
2022-12-17T02:42:11.078Z,10.10
2022-12-17T02:45:03.197Z,9.70
2022-12-17T02:47:55.992Z,9.50
2022-12-17T02:50:47.966Z,9.20
2022-12-17T02:53:41.266Z,9.60
2022-12-17T02:56:32.470Z,9.50
2022-12-17T02:59:23.338Z,9.50
2022-12-17T03:02:15.073Z,9.60
2022-12-17T03:05:27.627Z,9.60
2022-12-17T03:08:20.667Z,10.30
2022-12-17T03:14:04.055Z,9.60
2022-12-17T03:16:55.503Z,9.40
2022-12-17T03:19:46.978Z,10.10
2022-12-17T03:22:37.977Z,8.80
2022-12-17T03:25:29.998Z,9.70
2022-12-17T03:28:28.268Z,9.20
2022-12-17T03:31:20.781Z,9.80
2022-12-17T03:34:13.332Z,9.30
2022-12-17T03:37:04.793Z,9.50
2022-12-17T03:40:01.620Z,9.30
2022-12-17T03:42:53.346Z,8.80
2022-12-17T03:45:45.068Z,9.00
2022-12-17T03:48:36.519Z,9.20
2022-12-17T03:51:27.828Z,8.70
2022-12-17T03:54:19.081Z,9.20
2022-12-17T03:57:15.762Z,8.80
2022-12-17T04:00:07.834Z,8.80
2022-12-17T04:03:01.695Z,8.50
2022-12-17T04:05:53.160Z,8.60
2022-12-17T04:08:44.469Z,8.90
2022-12-17T04:11:36.189Z,8.50
2022-12-17T04:14:27.338Z,8.40
2022-12-17T04:17:19.210Z,8.70
2022-12-17T04:20:10.413Z,9.40
2022-12-17T04:23:01.716Z,7.90
2022-12-17T04:25:53.180Z,8.40
2022-12-17T04:28:44.334Z,8.00
2022-12-17T04:31:35.623Z,8.50
2022-12-17T04:34:26.961Z,8.70
2022-12-17T04:37:18.355Z,8.20
2022-12-17T04:40:10.229Z,8.90
2022-12-17T04:43:01.283Z,7.90
2022-12-17T04:45:52.841Z,8.20
2022-12-17T04:48:47.727Z,9.00
2022-12-17T04:51:38.724Z,8.50
2022-12-17T04:54:45.190Z,8.80
2022-12-17T04:57:36.235Z,8.40
2022-12-17T05:00:32.043Z,8.20
2022-12-17T05:03:29.429Z,8.50
2022-12-17T05:06:17.923Z,8.60
2022-12-17T05:09:08.975Z,8.70
2022-12-17T05:12:00.442Z,8.90
2022-12-17T05:14:51.389Z,9.00
2022-12-17T05:17:42.492Z,8.90
2022-12-17T05:20:34.516Z,8.60
2022-12-17T05:23:29.163Z,8.60
2022-12-17T05:26:30.586Z,8.70
2022-12-17T05:29:22.711Z,8.00
2022-12-17T05:32:14.266Z,8.30
2022-12-17T05:35:05.829Z,8.80
2022-12-17T05:37:57.295Z,8.00
2022-12-17T05:40:48.449Z,8.50
2022-12-17T05:43:40.370Z,8.90
2022-12-17T05:46:31.815Z,8.50
2022-12-17T05:49:23.291Z,8.00
2022-12-17T05:52:14.291Z,8.70
2022-12-17T05:55:10.943Z,8.40
2022-12-17T05:58:02.532Z,7.80
2022-12-17T06:00:53.890Z,9.10
2022-12-17T06:03:45.270Z,7.90
2022-12-17T06:06:36.966Z,7.90
2022-12-17T06:09:28.581Z,8.00
2022-12-17T06:12:20.498Z,8.90
2022-12-17T06:15:11.548Z,8.60
2022-12-17T06:18:15.093Z,9.20
2022-12-17T06:21:11.154Z,9.00
2022-12-17T06:24:17.555Z,9.00
2022-12-17T06:27:20.322Z,8.80
2022-12-17T06:30:17.016Z,8.10
2022-12-17T06:33:18.228Z,8.40
2022-12-17T06:36:10.615Z,8.20
2022-12-17T06:39:05.255Z,8.20
2022-12-17T06:42:00.547Z,8.80
2022-12-17T06:44:55.386Z,8.80
2022-12-17T06:50:38.972Z,9.40
2022-12-17T06:53:30.796Z,9.30
2022-12-17T06:56:22.303Z,8.90
2022-12-17T06:59:13.610Z,9.40
2022-12-17T07:02:05.202Z,9.40
2022-12-17T07:04:56.495Z,8.30
2022-12-17T07:07:48.093Z,8.50
2022-12-17T07:10:39.855Z,9.20
2022-12-17T07:13:31.372Z,8.70
2022-12-17T07:16:23.001Z,8.10
2022-12-17T07:19:14.292Z,8.70
2022-12-17T07:22:05.341Z,8.40
2022-12-17T07:24:57.025Z,8.60
2022-12-17T07:27:48.465Z,8.90
2022-12-17T07:30:39.922Z,8.70
2022-12-17T07:33:33.618Z,8.80
2022-12-17T07:36:27.509Z,8.40
2022-12-17T07:39:18.964Z,8.80
2022-12-17T07:42:10.225Z,9.30
2022-12-17T07:45:01.535Z,9.00
2022-12-17T07:47:53.095Z,8.90
2022-12-17T07:50:44.503Z,8.70
2022-12-17T07:53:36.243Z,8.70
2022-12-17T07:56:28.800Z,9.50
2022-12-17T07:59:20.419Z,9.50
2022-12-17T08:02:12.311Z,9.90
2022-12-17T08:05:04.011Z,9.70
2022-12-17T08:07:55.280Z,9.70
2022-12-17T08:10:46.260Z,10.10
2022-12-17T08:13:37.787Z,9.40
2022-12-17T08:16:30.207Z,9.50
2022-12-17T08:19:21.314Z,10.10
2022-12-17T08:22:12.818Z,9.60
2022-12-17T08:25:04.544Z,9.30
2022-12-17T08:27:56.007Z,9.30
2022-12-17T08:30:48.806Z,9.90
2022-12-17T08:33:40.206Z,9.20
2022-12-17T08:36:32.687Z,9.50
2022-12-17T08:39:24.763Z,9.00
2022-12-17T08:42:16.220Z,8.70
2022-12-17T08:45:07.785Z,9.20
2022-12-17T08:48:03.603Z,8.60
2022-12-17T08:50:55.670Z,8.50
2022-12-17T08:53:46.773Z,8.70
2022-12-17T08:56:38.134Z,8.60
2022-12-17T08:59:29.152Z,8.50
2022-12-17T09:02:20.459Z,9.10
2022-12-17T09:05:11.866Z,8.70
2022-12-17T09:08:03.355Z,8.70
2022-12-17T09:10:54.725Z,8.90
2022-12-17T09:13:46.022Z,8.50
2022-12-17T09:16:37.953Z,8.30
2022-12-17T09:19:31.824Z,8.60
2022-12-17T09:22:23.436Z,8.90
2022-12-17T09:25:14.848Z,8.60
2022-12-17T09:28:05.855Z,9.00
2022-12-17T09:31:02.709Z,8.90
2022-12-17T09:33:54.352Z,9.10
2022-12-17T09:36:51.065Z,9.80
2022-12-17T09:39:43.050Z,10.10
2022-12-17T09:42:46.784Z,10.30
2022-12-17T09:45:49.219Z,9.60
2022-12-17T09:48:49.416Z,10.70
2022-12-17T09:51:47.226Z,11.20
2022-12-17T09:55:01.240Z,11.40
2022-12-17T09:57:56.903Z,11.10
2022-12-17T10:00:50.412Z,11.90
2022-12-17T10:03:44.162Z,11.20
2022-12-17T10:06:41.218Z,11.10
2022-12-17T10:09:36.408Z,11.50
2022-12-17T10:12:36.262Z,11.40
2022-12-17T10:15:36.846Z,12.40
2022-12-17T10:18:34.056Z,11.40
2022-12-17T10:21:30.239Z,12.20
2022-12-17T10:24:29.584Z,11.80
2022-12-17T10:27:40.637Z,12.20
2022-12-17T10:30:38.774Z,11.20
2022-12-17T10:33:36.762Z,10.60
2022-12-17T10:36:44.143Z,11.20
2022-12-17T10:39:41.783Z,10.60
2022-12-17T10:42:45.108Z,10.40
2022-12-17T10:45:49.830Z,11.10
2022-12-17T10:48:44.978Z,11.00
2022-12-17T10:51:48.150Z,11.10
2022-12-17T10:54:49.330Z,11.40
2022-12-17T10:57:48.569Z,10.80
2022-12-17T11:00:50.931Z,10.70
2022-12-17T11:04:06.903Z,10.60
2022-12-17T11:07:07.364Z,10.40
2022-12-17T11:10:09.875Z,10.40
2022-12-17T11:13:06.456Z,10.90
2022-12-17T11:16:03.800Z,10.70
2022-12-17T11:19:07.180Z,10.10
2022-12-17T11:22:04.272Z,9.40
2022-12-17T11:25:01.408Z,10.10
2022-12-17T11:28:01.516Z,10.00
2022-12-17T11:31:02.722Z,10.60
2022-12-17T11:33:58.107Z,9.70
2022-12-17T11:36:56.107Z,9.70
2022-12-17T11:39:55.706Z,9.50
2022-12-17T11:42:52.124Z,10.30
2022-12-17T11:45:53.306Z,8.90
2022-12-17T11:48:58.122Z,10.00
2022-12-17T11:52:10.207Z,9.10
2022-12-17T11:55:16.171Z,10.20
2022-12-17T11:58:17.022Z,9.80
2022-12-17T12:01:24.319Z,9.80
2022-12-17T12:04:33.007Z,9.20
2022-12-17T12:07:32.293Z,9.70
2022-12-17T12:10:31.022Z,9.10
2022-12-17T12:13:33.383Z,9.10
2022-12-17T12:16:35.398Z,9.20
2022-12-17T12:19:45.932Z,8.60
2022-12-17T12:22:42.824Z,9.30
2022-12-17T12:25:51.055Z,9.10
2022-12-17T12:28:54.180Z,9.10
2022-12-17T12:31:57.306Z,9.50
2022-12-17T12:34:52.810Z,8.90
2022-12-17T12:37:43.454Z,8.50
2022-12-17T12:40:43.468Z,8.90
2022-12-17T12:43:41.832Z,8.50
2022-12-17T12:46:39.676Z,8.50
2022-12-17T12:49:43.247Z,8.20
2022-12-17T12:52:41.485Z,8.10
2022-12-17T12:55:33.368Z,8.20
2022-12-17T12:58:39.760Z,8.60
2022-12-17T13:01:31.754Z,8.10
2022-12-17T13:04:45.755Z,8.60
2022-12-17T13:07:31.436Z,8.50
2022-12-17T13:10:17.574Z,8.40
2022-12-17T13:12:51.841Z,8.60
2022-12-17T13:15:36.652Z,8.60
2022-12-17T13:18:24.513Z,8.50
2022-12-17T13:21:21.831Z,9.10
2022-12-17T13:23:55.502Z,8.60
2022-12-17T13:26:46.126Z,9.10
2022-12-17T13:29:31.422Z,8.80
2022-12-17T13:32:22.756Z,8.60
2022-12-17T13:35:17.489Z,8.80
2022-12-17T13:38:01.849Z,9.00
2022-12-17T13:40:48.329Z,9.00
2022-12-17T13:43:26.385Z,8.90
2022-12-17T13:46:00.663Z,9.30
2022-12-17T13:48:34.282Z,9.50
2022-12-17T13:51:19.320Z,9.90
2022-12-17T13:53:59.480Z,9.50
2022-12-17T13:56:37.739Z,9.70
2022-12-17T13:59:21.529Z,9.70
2022-12-17T14:01:56.876Z,11.20
2022-12-17T14:04:32.916Z,9.20
2022-12-17T14:07:09.602Z,10.30
2022-12-17T14:09:46.071Z,10.00
2022-12-17T14:12:25.810Z,9.70
2022-12-17T14:15:02.440Z,10.00
2022-12-17T14:17:43.820Z,9.90
2022-12-17T14:20:20.646Z,9.80
2022-12-17T14:22:58.136Z,9.80
2022-12-17T14:25:38.135Z,10.10
2022-12-17T14:28:26.589Z,9.50
2022-12-17T14:34:08.535Z,9.40
2022-12-17T14:36:44.535Z,9.50
2022-12-17T14:39:24.174Z,9.50
2022-12-17T14:42:29.539Z,9.60
2022-12-17T14:45:06.954Z,9.30
2022-12-17T14:47:41.905Z,10.00
2022-12-17T14:50:33.929Z,9.90
2022-12-17T14:53:27.102Z,9.90
2022-12-17T14:56:01.501Z,9.90
2022-12-17T14:58:35.330Z,9.70
2022-12-17T15:01:14.774Z,9.00
2022-12-17T15:03:49.737Z,10.40
2022-12-17T15:06:23.923Z,9.40
2022-12-17T15:08:57.212Z,9.80
2022-12-17T15:11:30.284Z,9.60
2022-12-17T15:14:03.504Z,10.10
2022-12-17T15:16:37.133Z,10.30
2022-12-17T15:19:10.417Z,10.30
2022-12-17T15:21:43.997Z,9.50
2022-12-17T15:24:25.278Z,9.70
2022-12-17T15:26:58.669Z,10.60
2022-12-17T15:29:34.678Z,9.40
2022-12-17T15:32:08.903Z,9.70
2022-12-17T15:34:42.519Z,10.20
2022-12-17T15:37:21.035Z,10.40
2022-12-17T15:39:57.648Z,10.20
2022-12-17T15:42:48.895Z,10.10
2022-12-17T15:45:22.762Z,10.30
2022-12-17T15:47:56.359Z,10.60
2022-12-17T15:50:29.869Z,9.70
2022-12-17T15:53:04.024Z,10.60
2022-12-17T15:55:37.865Z,9.50
2022-12-17T15:58:13.904Z,9.70
2022-12-17T16:00:47.505Z,9.30
2022-12-17T16:03:20.997Z,9.60
2022-12-17T16:05:54.567Z,9.80
2022-12-17T16:08:28.260Z,9.60
2022-12-17T16:11:01.620Z,9.20
2022-12-17T16:16:10.215Z,9.60
2022-12-17T16:18:44.771Z,10.00
2022-12-17T16:21:18.853Z,9.80
2022-12-17T16:23:52.387Z,10.20
2022-12-17T16:26:26.212Z,9.90
2022-12-17T16:29:01.444Z,10.40
2022-12-17T16:31:35.418Z,10.10
2022-12-17T16:34:13.496Z,9.10
2022-12-17T16:36:47.310Z,10.10
2022-12-17T16:39:22.653Z,9.90
2022-12-17T16:41:56.462Z,10.00
2022-12-17T16:44:30.270Z,10.00
2022-12-17T16:47:04.139Z,9.70
2022-12-17T16:49:38.191Z,10.20
2022-12-17T16:52:11.950Z,9.70
2022-12-17T16:54:46.009Z,10.20
2022-12-17T16:57:19.668Z,10.30
2022-12-17T17:02:25.458Z,9.50
2022-12-17T17:04:59.611Z,10.40
2022-12-17T17:10:05.427Z,9.90
2022-12-17T17:12:38.987Z,10.20
2022-12-17T17:15:13.965Z,10.10
2022-12-17T17:17:55.442Z,9.80
2022-12-17T17:20:32.489Z,9.20
2022-12-17T17:23:07.130Z,9.50
2022-12-17T17:25:57.983Z,9.60
2022-12-17T17:28:32.481Z,9.80
2022-12-17T17:31:08.804Z,8.80
2022-12-17T17:33:46.961Z,8.90
2022-12-17T17:36:23.857Z,8.50
2022-12-17T17:39:00.305Z,9.20
2022-12-17T17:41:36.359Z,9.10
2022-12-17T17:44:14.134Z,8.50
2022-12-17T17:46:47.650Z,8.90
2022-12-17T17:49:21.211Z,8.00
2022-12-17T17:52:11.145Z,8.60
2022-12-17T17:54:45.719Z,8.40
2022-12-17T17:57:19.527Z,8.20
2022-12-17T17:59:53.439Z,8.10
2022-12-17T18:02:27.628Z,8.20
2022-12-17T18:05:01.680Z,8.20
2022-12-17T18:07:35.222Z,8.80
2022-12-17T18:13:01.514Z,15.10
2022-12-17T18:15:35.316Z,15.20
2022-12-17T18:18:14.479Z,16.40
2022-12-17T18:20:48.991Z,15.90
2022-12-17T18:23:22.683Z,14.90
2022-12-17T18:25:56.184Z,14.50
2022-12-17T18:28:33.286Z,14.60
2022-12-17T18:31:13.913Z,13.60
2022-12-17T18:33:51.476Z,14.60
2022-12-17T18:36:29.135Z,13.20
2022-12-17T18:39:05.228Z,12.70
2022-12-17T18:41:57.854Z,13.10
2022-12-17T18:44:33.266Z,12.50
2022-12-17T18:47:07.350Z,13.00
2022-12-17T18:49:41.088Z,12.50
2022-12-17T18:52:17.000Z,12.60
2022-12-17T18:54:51.116Z,11.20
2022-12-17T18:57:24.457Z,12.50
2022-12-17T18:59:58.152Z,11.80
2022-12-17T19:05:03.747Z,11.40
2022-12-17T19:07:37.549Z,11.10
2022-12-17T19:10:12.835Z,11.30
2022-12-17T19:12:46.176Z,12.70
2022-12-17T19:17:52.229Z,12.40
2022-12-17T19:20:25.725Z,12.00
2022-12-17T19:25:31.372Z,11.70
2022-12-17T19:28:05.051Z,12.30
2022-12-17T19:30:38.233Z,11.20
2022-12-17T19:33:11.749Z,11.90
2022-12-17T19:35:45.144Z,11.60
2022-12-17T19:40:53.573Z,11.30
2022-12-17T19:43:29.027Z,12.10
2022-12-17T19:46:09.130Z,12.00
2022-12-17T19:48:48.447Z,12.20
2022-12-17T19:51:25.190Z,11.90
2022-12-17T19:54:04.751Z,11.30
2022-12-17T19:56:45.750Z,11.00
2022-12-17T19:59:19.144Z,10.90
2022-12-17T20:01:54.125Z,11.90
2022-12-17T20:04:28.347Z,10.80
2022-12-17T20:07:01.854Z,11.20
2022-12-17T20:09:35.987Z,11.30
2022-12-17T20:12:10.643Z,11.10
2022-12-17T20:14:44.456Z,10.70
2022-12-17T20:17:18.002Z,11.20
2022-12-17T20:22:27.262Z,11.50
2022-12-17T20:25:05.212Z,11.10
2022-12-17T20:27:39.066Z,10.60
2022-12-17T20:30:14.619Z,11.70
2022-12-17T20:32:48.188Z,12.10
2022-12-17T20:35:22.434Z,11.10
2022-12-17T20:37:55.934Z,12.00
2022-12-17T20:43:02.139Z,11.50
2022-12-17T20:45:35.545Z,11.30
2022-12-17T20:48:09.609Z,10.70
2022-12-17T20:50:43.819Z,10.90
2022-12-17T20:53:17.584Z,10.80
2022-12-17T20:58:23.767Z,10.30
2022-12-17T21:03:29.056Z,9.70
2022-12-17T21:06:10.022Z,9.80
2022-12-17T21:08:49.646Z,9.90
2022-12-17T21:11:26.847Z,10.10
2022-12-17T21:14:02.986Z,9.00
2022-12-17T21:19:24.546Z,9.60
2022-12-17T21:21:58.225Z,9.80
2022-12-17T21:24:31.777Z,9.70
2022-12-17T21:29:36.715Z,9.30
2022-12-17T21:33:55.936Z,8.90
2022-12-17T21:36:31.222Z,9.20
2022-12-17T21:39:09.220Z,9.40
2022-12-17T21:42:06.049Z,8.70
2022-12-17T21:44:39.701Z,8.10
2022-12-17T21:47:13.277Z,8.10
2022-12-17T21:52:18.005Z,8.60
2022-12-17T21:57:23.216Z,8.00
2022-12-17T21:59:56.379Z,8.50
2022-12-17T22:02:29.943Z,7.80
2022-12-17T22:05:03.829Z,8.20
2022-12-17T22:07:45.676Z,8.10
2022-12-17T22:10:49.233Z,8.50
2022-12-17T22:13:34.722Z,7.80
2022-12-17T22:16:12.520Z,8.50
2022-12-17T22:18:46.124Z,7.90
2022-12-17T22:21:19.674Z,7.60
2022-12-17T22:23:53.686Z,9.10
2022-12-17T22:26:28.164Z,8.40
2022-12-17T22:29:03.427Z,8.30
2022-12-17T22:32:02.849Z,7.60
2022-12-17T22:36:05.957Z,7.90
2022-12-17T22:39:51.946Z,7.80
2022-12-17T22:42:53.862Z,8.20
2022-12-17T22:44:35.709Z,7.90
2022-12-17T22:46:27.178Z,7.40
2022-12-17T22:49:01.477Z,7.90
2022-12-17T22:51:38.599Z,7.50
2022-12-17T22:54:16.465Z,7.20
2022-12-17T22:57:34.511Z,7.60
2022-12-17T22:59:43.682Z,7.80
2022-12-17T23:02:18.603Z,7.40
2022-12-17T23:04:53.733Z,7.50
2022-12-17T23:07:31.754Z,7.00
2022-12-17T23:10:06.838Z,7.70
2022-12-17T23:12:52.881Z,7.90
2022-12-17T23:15:36.876Z,8.00
2022-12-17T23:18:11.437Z,8.10
2022-12-17T23:20:44.994Z,7.20
2022-12-17T23:23:18.803Z,7.90
2022-12-17T23:25:53.318Z,8.40
2022-12-17T23:28:26.870Z,7.40
2022-12-17T23:31:00.616Z,7.90
2022-12-17T23:33:34.188Z,7.70
2022-12-17T23:36:12.087Z,7.50
2022-12-17T23:38:46.460Z,7.20
2022-12-17T23:41:22.464Z,7.70
2022-12-17T23:43:57.760Z,7.60
2022-12-17T23:46:32.856Z,7.80
2022-12-17T23:49:08.440Z,8.00
2022-12-17T23:51:41.840Z,7.70
2022-12-17T23:54:15.292Z,7.50
2022-12-17T23:56:51.190Z,7.50
2022-12-17T23:59:24.951Z,7.40
